createdAt,value
2022-11-30T00:00:30.841Z,45.00
2022-11-30T00:03:57.756Z,46.67
2022-11-30T00:07:00.826Z,46.33
2022-11-30T00:10:04.909Z,56.00
2022-11-30T00:13:08.143Z,47.33
2022-11-30T00:16:10.936Z,44.00
2022-11-30T00:19:13.897Z,58.33
2022-11-30T00:22:17.253Z,46.67
2022-11-30T00:25:20.255Z,45.67
2022-11-30T00:28:22.928Z,42.33
2022-11-30T00:31:25.863Z,45.50
2022-11-30T00:34:28.372Z,42.00
2022-11-30T00:37:31.158Z,42.33
2022-11-30T00:40:33.675Z,41.67
2022-11-30T00:43:36.597Z,44.67
2022-11-30T00:46:39.271Z,45.33
2022-11-30T00:49:42.162Z,44.00
2022-11-30T00:52:44.589Z,37.67
2022-11-30T00:55:48.078Z,42.33
2022-11-30T00:58:50.565Z,42.67
2022-11-30T01:01:55.276Z,29.33
2022-11-30T01:04:59.145Z,44.00
2022-11-30T01:08:03.402Z,36.67
2022-11-30T01:11:13.357Z,37.67
2022-11-30T01:14:16.202Z,39.00
2022-11-30T01:17:18.737Z,43.67
2022-11-30T01:20:21.619Z,39.33
2022-11-30T01:23:24.122Z,44.00
2022-11-30T01:26:27.147Z,39.67
2022-11-30T01:29:29.685Z,48.00
2022-11-30T01:32:32.557Z,40.67
2022-11-30T01:35:34.905Z,37.67
2022-11-30T01:38:40.350Z,34.33
2022-11-30T01:41:42.861Z,49.00
2022-11-30T01:44:53.203Z,36.33
2022-11-30T01:47:57.645Z,41.33
2022-11-30T01:51:01.325Z,35.33
2022-11-30T01:54:06.832Z,47.67
2022-11-30T01:57:21.321Z,52.33
2022-11-30T02:00:24.243Z,41.00
2022-11-30T02:03:49.212Z,53.00
2022-11-30T02:06:51.935Z,39.33
2022-11-30T02:09:54.677Z,40.00
2022-11-30T02:13:44.960Z,34.67
2022-11-30T02:16:53.592Z,45.67
2022-11-30T02:20:11.211Z,37.00
2022-11-30T02:23:41.443Z,42.00
2022-11-30T02:26:56.197Z,40.00
2022-11-30T02:30:02.316Z,42.33
2022-11-30T02:33:11.770Z,42.67
2022-11-30T02:36:14.651Z,49.67
2022-11-30T02:39:17.491Z,46.33
2022-11-30T02:42:21.734Z,39.67
2022-11-30T02:45:33.779Z,37.67
2022-11-30T02:48:43.687Z,37.67
2022-11-30T02:51:47.553Z,41.33
2022-11-30T02:54:50.319Z,42.67
2022-11-30T02:57:52.746Z,47.33
2022-11-30T03:00:55.373Z,41.33
2022-11-30T03:03:57.725Z,45.00
2022-11-30T03:07:00.550Z,49.00
2022-11-30T03:10:04.666Z,46.67
2022-11-30T03:13:07.293Z,48.33
2022-11-30T03:16:11.402Z,34.33
2022-11-30T03:19:14.487Z,50.00
2022-11-30T03:22:16.875Z,45.00
2022-11-30T03:25:19.568Z,47.00
2022-11-30T03:28:21.885Z,36.67
2022-11-30T03:31:24.888Z,42.67
2022-11-30T03:34:28.819Z,38.67
2022-11-30T03:37:31.412Z,29.67
2022-11-30T03:40:33.829Z,37.67
2022-11-30T03:43:36.719Z,41.33
2022-11-30T03:46:39.117Z,38.33
2022-11-30T03:49:41.852Z,51.33
2022-11-30T03:52:44.207Z,36.67
2022-11-30T03:55:47.006Z,42.00
2022-11-30T03:58:49.294Z,47.00
2022-11-30T04:01:51.921Z,37.00
2022-11-30T04:04:54.335Z,35.00
2022-11-30T04:07:57.131Z,38.00
2022-11-30T04:11:01.125Z,48.67
2022-11-30T04:14:04.155Z,43.00
2022-11-30T04:17:06.441Z,39.33
2022-11-30T04:20:09.385Z,36.67
2022-11-30T04:23:12.247Z,42.33
2022-11-30T04:26:16.695Z,40.33
2022-11-30T04:29:19.101Z,36.33
2022-11-30T04:32:21.754Z,33.33
2022-11-30T04:35:24.210Z,45.67
2022-11-30T04:38:27.720Z,36.00
2022-11-30T04:41:30.094Z,43.00
2022-11-30T04:44:32.745Z,38.00
2022-11-30T04:47:35.107Z,33.33
2022-11-30T04:50:37.911Z,41.67
2022-11-30T04:53:40.183Z,39.00
2022-11-30T04:56:42.815Z,36.33
2022-11-30T04:59:45.226Z,36.33
2022-11-30T05:02:52.948Z,45.33
2022-11-30T05:05:55.687Z,40.33
2022-11-30T05:08:59.481Z,43.67
2022-11-30T05:12:02.171Z,39.67
2022-11-30T05:15:05.403Z,41.67
2022-11-30T05:18:07.870Z,36.33
2022-11-30T05:21:10.568Z,37.00
2022-11-30T05:24:13.117Z,34.33
2022-11-30T05:27:22.156Z,34.00
2022-11-30T05:30:24.977Z,39.33
2022-11-30T05:33:27.690Z,39.00
2022-11-30T05:36:30.023Z,33.67
2022-11-30T05:39:32.716Z,37.67
2022-11-30T05:42:35.320Z,36.67
2022-11-30T05:45:37.981Z,28.67
2022-11-30T05:48:40.291Z,42.33
2022-11-30T05:51:43.002Z,33.00
2022-11-30T05:54:45.743Z,34.33
2022-11-30T05:57:48.728Z,36.00
2022-11-30T06:00:51.043Z,41.33
2022-11-30T06:03:53.769Z,37.33
2022-11-30T06:06:56.167Z,36.33
2022-11-30T06:09:59.079Z,29.67
2022-11-30T06:13:07.129Z,43.33
2022-11-30T06:16:10.308Z,42.33
2022-11-30T06:19:12.728Z,34.67
2022-11-30T06:22:15.427Z,40.67
2022-11-30T06:25:17.785Z,43.00
2022-11-30T06:28:20.441Z,35.67
2022-11-30T06:31:22.894Z,45.67
2022-11-30T06:34:25.794Z,36.67
2022-11-30T06:37:28.125Z,32.67
2022-11-30T06:40:31.221Z,35.67
2022-11-30T06:43:38.193Z,29.33
2022-11-30T06:46:40.854Z,43.33
2022-11-30T06:49:43.185Z,39.67
2022-11-30T06:52:45.926Z,38.33
2022-11-30T06:55:48.254Z,42.00
2022-11-30T06:58:52.340Z,57.33
2022-11-30T07:01:54.644Z,38.33
2022-11-30T07:04:57.365Z,38.33
2022-11-30T07:07:59.728Z,45.00
2022-11-30T07:11:03.301Z,41.33
2022-11-30T07:14:05.657Z,53.67
2022-11-30T07:17:08.317Z,42.67
2022-11-30T07:20:10.850Z,39.67
2022-11-30T07:23:31.961Z,44.67
2022-11-30T07:26:34.358Z,38.00
2022-11-30T07:29:37.176Z,39.67
2022-11-30T07:32:39.519Z,44.33
2022-11-30T07:35:42.182Z,43.00
2022-11-30T07:38:44.964Z,50.00
2022-11-30T07:41:47.620Z,45.00
2022-11-30T07:44:58.368Z,45.67
2022-11-30T07:48:02.348Z,47.00
2022-11-30T07:51:06.572Z,51.00
2022-11-30T07:54:09.341Z,36.67
2022-11-30T07:57:11.725Z,48.67
2022-11-30T08:00:15.222Z,45.00
2022-11-30T08:03:17.503Z,43.00
2022-11-30T08:06:22.561Z,31.33
2022-11-30T08:09:24.956Z,44.33
2022-11-30T08:12:27.722Z,45.00
2022-11-30T08:15:32.867Z,45.67
2022-11-30T08:18:36.544Z,33.33
2022-11-30T08:21:38.960Z,46.33
2022-11-30T08:24:41.592Z,53.33
2022-11-30T08:27:44.124Z,45.00
2022-11-30T08:30:46.937Z,45.33
2022-11-30T08:33:50.149Z,37.67
2022-11-30T08:36:52.821Z,38.33
2022-11-30T08:39:55.181Z,46.67
2022-11-30T08:42:59.432Z,45.67
2022-11-30T08:46:27.415Z,42.33
2022-11-30T08:49:31.196Z,46.00
2022-11-30T08:52:33.602Z,37.33
2022-11-30T08:55:36.284Z,44.67
2022-11-30T08:58:39.549Z,37.00
2022-11-30T09:01:43.137Z,40.67
2022-11-30T09:04:47.741Z,48.33
2022-11-30T09:07:50.598Z,42.67
2022-11-30T09:10:52.916Z,32.00
2022-11-30T09:13:57.874Z,45.67
2022-11-30T09:17:00.162Z,50.33
2022-11-30T09:20:03.046Z,34.67
2022-11-30T09:23:05.517Z,45.00
2022-11-30T09:26:11.547Z,40.33
2022-11-30T09:29:13.974Z,39.00
2022-11-30T09:32:16.600Z,36.00
2022-11-30T09:35:18.919Z,38.00
2022-11-30T09:38:21.583Z,43.00
2022-11-30T09:41:39.227Z,36.00
2022-11-30T09:44:51.281Z,38.67
2022-11-30T09:48:18.914Z,36.67
2022-11-30T09:51:27.497Z,34.67
2022-11-30T09:54:39.448Z,42.00
2022-11-30T09:57:49.284Z,43.33
2022-11-30T10:00:51.695Z,31.33
2022-11-30T10:03:54.386Z,34.00
2022-11-30T10:07:19.581Z,29.33
2022-11-30T10:10:36.004Z,36.33
2022-11-30T10:13:50.223Z,39.00
2022-11-30T10:17:07.270Z,39.67
2022-11-30T10:20:30.951Z,16.00
2022-11-30T10:24:01.498Z,33.00
2022-11-30T10:27:51.041Z,24.67
2022-11-30T10:30:54.238Z,33.33
2022-11-30T10:34:16.560Z,28.67
2022-11-30T10:37:22.760Z,24.33
2022-11-30T10:40:34.225Z,32.33
2022-11-30T10:43:57.272Z,27.00
2022-11-30T10:47:08.092Z,18.33
2022-11-30T10:50:14.519Z,26.00
2022-11-30T10:53:17.057Z,23.33
2022-11-30T10:56:19.658Z,26.67
2022-11-30T10:59:49.627Z,30.00
2022-11-30T11:02:53.339Z,26.33
2022-11-30T11:06:21.831Z,29.67
2022-11-30T11:09:30.286Z,30.67
2022-11-30T11:12:32.963Z,29.00
2022-11-30T11:15:36.655Z,37.00
2022-11-30T11:18:56.140Z,30.00
2022-11-30T11:21:58.826Z,24.67
2022-11-30T11:25:20.232Z,28.00
2022-11-30T11:28:24.705Z,31.67
2022-11-30T11:32:19.790Z,31.00
2022-11-30T11:35:39.413Z,29.67
2022-11-30T11:38:48.630Z,27.33
2022-11-30T11:41:52.851Z,25.33
2022-11-30T11:45:00.378Z,25.00
2022-11-30T11:48:05.686Z,20.00
2022-11-30T11:51:09.817Z,24.33
2022-11-30T11:54:33.762Z,31.33
2022-11-30T11:57:52.138Z,25.00
2022-11-30T12:01:10.826Z,23.67
2022-11-30T12:04:44.922Z,24.33
2022-11-30T12:07:56.237Z,32.00
2022-11-30T12:11:14.058Z,25.67
2022-11-30T12:14:19.014Z,34.00
2022-11-30T12:17:33.718Z,28.67
2022-11-30T12:20:51.944Z,25.00
2022-11-30T12:24:00.255Z,28.00
2022-11-30T12:27:22.075Z,29.33
2022-11-30T12:30:59.952Z,21.33
2022-11-30T12:34:56.287Z,22.33
2022-11-30T12:38:04.705Z,27.00
2022-11-30T12:41:22.485Z,24.33
2022-11-30T12:44:42.161Z,23.67
2022-11-30T12:48:04.911Z,27.00
2022-11-30T12:51:33.971Z,33.33
2022-11-30T12:54:43.285Z,33.33
2022-11-30T12:58:03.140Z,31.33
2022-11-30T13:01:29.213Z,31.67
2022-11-30T13:04:58.757Z,30.00
2022-11-30T13:08:11.491Z,27.67
2022-11-30T13:11:32.919Z,37.33
2022-11-30T13:14:36.518Z,30.00
2022-11-30T13:17:38.931Z,27.33
2022-11-30T13:20:47.206Z,25.67
2022-11-30T13:24:02.672Z,28.33
2022-11-30T13:27:23.356Z,27.00
2022-11-30T13:30:35.616Z,30.67
2022-11-30T13:33:45.853Z,35.00
2022-11-30T13:36:48.656Z,30.33
2022-11-30T13:40:01.954Z,26.67
2022-11-30T13:43:04.482Z,33.00
2022-11-30T13:46:14.536Z,34.00
2022-11-30T13:49:23.259Z,32.67
2022-11-30T13:53:04.564Z,29.33
2022-11-30T13:56:34.253Z,36.33
2022-11-30T13:59:46.375Z,28.67
2022-11-30T14:02:54.401Z,34.67
2022-11-30T14:06:01.587Z,38.33
2022-11-30T14:09:04.426Z,31.33
2022-11-30T14:12:31.890Z,26.00
2022-11-30T14:15:40.915Z,30.67
2022-11-30T14:18:44.742Z,28.33
2022-11-30T14:21:47.157Z,27.67
2022-11-30T14:24:50.683Z,21.67
2022-11-30T14:27:56.210Z,31.33
2022-11-30T14:30:59.444Z,31.33
2022-11-30T14:34:21.978Z,25.33
2022-11-30T14:37:29.316Z,28.00
2022-11-30T14:40:32.101Z,25.00
2022-11-30T14:43:34.836Z,37.33
2022-11-30T14:46:37.449Z,25.00
2022-11-30T14:49:46.971Z,23.33
2022-11-30T14:53:15.154Z,26.33
2022-11-30T14:56:33.629Z,24.33
2022-11-30T14:59:51.078Z,27.00
2022-11-30T15:02:53.970Z,31.00
2022-11-30T15:05:58.876Z,29.33
2022-11-30T15:09:02.335Z,31.00
2022-11-30T15:12:04.950Z,25.00
2022-11-30T15:15:14.661Z,32.33
2022-11-30T15:18:18.809Z,26.00
2022-11-30T15:21:21.805Z,27.33
2022-11-30T15:24:25.110Z,30.33
2022-11-30T15:27:27.954Z,27.33
2022-11-30T15:30:30.907Z,22.00
2022-11-30T15:33:40.670Z,36.67
2022-11-30T15:36:43.345Z,27.33
2022-11-30T15:39:52.747Z,31.00
2022-11-30T15:42:55.291Z,33.67
2022-11-30T15:46:00.118Z,34.33
2022-11-30T15:49:17.707Z,25.00
2022-11-30T15:52:21.385Z,34.00
2022-11-30T15:55:45.071Z,35.33
2022-11-30T15:59:00.943Z,32.00
2022-11-30T16:02:14.622Z,31.33
2022-11-30T16:05:21.072Z,38.33
2022-11-30T16:08:23.684Z,32.67
2022-11-30T16:11:27.067Z,27.00
2022-11-30T16:14:29.793Z,28.67
2022-11-30T16:17:33.201Z,33.67
2022-11-30T16:20:36.785Z,22.00
2022-11-30T16:23:40.017Z,26.00
2022-11-30T16:26:50.828Z,24.67
2022-11-30T16:29:55.682Z,28.33
2022-11-30T16:32:58.661Z,24.67
2022-11-30T16:36:23.724Z,10.67
2022-11-30T16:39:26.806Z,26.00
2022-11-30T16:42:29.693Z,28.00
2022-11-30T16:45:36.819Z,27.67
2022-11-30T16:48:41.810Z,30.33
2022-11-30T16:51:44.384Z,28.67
2022-11-30T16:54:47.305Z,27.33
2022-11-30T16:57:50.637Z,38.33
2022-11-30T17:00:53.903Z,32.67
2022-11-30T17:03:57.245Z,34.00
2022-11-30T17:07:03.005Z,26.33
2022-11-30T17:10:07.392Z,28.00
2022-11-30T17:13:18.333Z,27.33
2022-11-30T17:16:21.433Z,29.00
2022-11-30T17:19:25.020Z,27.33
2022-11-30T17:22:28.105Z,25.33
2022-11-30T17:25:32.190Z,28.67
2022-11-30T17:28:35.413Z,30.33
2022-11-30T17:31:39.083Z,28.00
2022-11-30T17:34:42.295Z,32.33
2022-11-30T17:37:45.900Z,29.67
2022-11-30T17:40:48.801Z,30.00
2022-11-30T17:43:53.455Z,33.67
2022-11-30T17:46:56.351Z,29.00
2022-11-30T17:50:01.180Z,27.00
2022-11-30T17:53:06.512Z,30.33
2022-11-30T17:56:15.680Z,24.00
2022-11-30T17:59:21.120Z,30.67
2022-11-30T18:02:24.981Z,28.00
2022-11-30T18:05:28.179Z,33.33
2022-11-30T18:08:35.199Z,35.33
2022-11-30T18:11:38.790Z,28.67
2022-11-30T18:14:42.667Z,34.67
2022-11-30T18:17:45.591Z,27.33
2022-11-30T18:20:49.278Z,33.67
2022-11-30T18:23:54.981Z,30.67
2022-11-30T18:26:58.671Z,28.00
2022-11-30T18:30:05.999Z,29.33
2022-11-30T18:33:13.359Z,26.67
2022-11-30T18:36:16.395Z,26.67
2022-11-30T18:39:22.383Z,30.00
2022-11-30T18:42:25.675Z,25.33
2022-11-30T18:45:30.087Z,28.00
2022-11-30T18:48:33.543Z,26.67
2022-11-30T18:51:37.589Z,22.00
2022-11-30T18:54:43.778Z,24.33
2022-11-30T18:57:47.954Z,20.67
2022-11-30T19:00:54.320Z,27.67
2022-11-30T19:03:59.945Z,29.00
2022-11-30T19:07:04.378Z,20.00
2022-11-30T19:10:10.278Z,23.00
2022-11-30T19:13:13.964Z,28.67
2022-11-30T19:16:19.856Z,18.33
2022-11-30T19:19:23.111Z,26.00
2022-11-30T19:22:31.240Z,20.33
2022-11-30T19:25:34.792Z,32.67
2022-11-30T19:28:39.825Z,28.67
2022-11-30T19:31:44.877Z,22.00
2022-11-30T19:34:50.030Z,23.33
2022-11-30T19:37:53.590Z,25.67
2022-11-30T19:40:58.320Z,28.33
2022-11-30T19:44:04.896Z,22.33
2022-11-30T19:47:09.161Z,26.33
2022-11-30T19:50:12.758Z,22.00
2022-11-30T19:53:16.596Z,25.67
2022-11-30T19:56:19.862Z,23.00
2022-11-30T19:59:23.693Z,20.67
2022-11-30T20:02:28.101Z,26.00
2022-11-30T20:05:31.341Z,23.33
2022-11-30T20:08:35.363Z,19.67
2022-11-30T20:11:40.859Z,23.33
2022-11-30T20:14:45.965Z,22.67
2022-11-30T20:17:50.133Z,20.00
2022-11-30T20:20:53.359Z,40.33
2022-11-30T20:24:02.124Z,29.33
2022-11-30T20:27:05.527Z,28.67
2022-11-30T20:30:10.165Z,20.00
2022-11-30T20:33:14.465Z,29.33
2022-11-30T20:36:18.783Z,29.67
2022-11-30T20:39:21.851Z,28.00
2022-11-30T20:42:25.722Z,26.67
2022-11-30T20:45:29.082Z,28.33
2022-11-30T20:48:33.882Z,26.00
2022-11-30T20:51:37.303Z,26.00
2022-11-30T20:54:41.104Z,27.67
2022-11-30T20:57:44.458Z,31.33
2022-11-30T21:00:47.830Z,26.00
2022-11-30T21:03:51.063Z,31.33
2022-11-30T21:06:56.044Z,29.00
2022-11-30T21:09:58.860Z,32.00
2022-11-30T21:13:02.170Z,30.67
2022-11-30T21:16:07.471Z,40.67
2022-11-30T21:19:12.119Z,28.67
2022-11-30T21:22:14.498Z,25.33
2022-11-30T21:25:18.162Z,22.67
2022-11-30T21:28:22.399Z,27.33
2022-11-30T21:31:25.380Z,34.67
2022-11-30T21:34:27.885Z,31.67
2022-11-30T21:37:30.560Z,35.00
2022-11-30T21:40:33.017Z,33.67
2022-11-30T21:43:36.064Z,26.33
2022-11-30T21:46:38.916Z,37.00
2022-11-30T21:49:41.609Z,35.00
2022-11-30T21:52:43.960Z,38.67
2022-11-30T21:55:47.842Z,25.33
2022-11-30T21:58:52.166Z,28.33
2022-11-30T22:01:54.936Z,28.33
2022-11-30T22:04:57.291Z,31.33
2022-11-30T22:08:00.017Z,23.67
2022-11-30T22:11:03.944Z,27.33
2022-11-30T22:14:07.753Z,28.33
2022-11-30T22:17:10.100Z,34.33
2022-11-30T22:20:13.338Z,25.33
2022-11-30T22:23:15.713Z,28.00
2022-11-30T22:26:21.598Z,22.67
2022-11-30T22:29:24.730Z,29.67
2022-11-30T22:32:27.369Z,15.00
2022-11-30T22:35:29.685Z,29.33
2022-11-30T22:38:32.412Z,26.33
2022-11-30T22:41:34.710Z,33.00
2022-11-30T22:44:37.498Z,25.67
2022-11-30T22:47:39.863Z,22.00
2022-11-30T22:50:42.541Z,29.00
2022-11-30T22:53:45.941Z,30.00
2022-11-30T22:56:48.629Z,25.00
2022-11-30T22:59:50.975Z,32.33
2022-11-30T23:02:53.658Z,27.33
2022-11-30T23:05:56.105Z,30.33
2022-11-30T23:08:59.692Z,26.33
2022-11-30T23:12:02.114Z,18.33
2022-11-30T23:15:05.013Z,26.33
2022-11-30T23:18:07.413Z,24.33
2022-11-30T23:21:19.339Z,34.00
2022-11-30T23:24:22.275Z,33.67
2022-11-30T23:27:24.950Z,27.33
2022-11-30T23:30:27.649Z,25.67
2022-11-30T23:33:30.320Z,17.00
2022-11-30T23:36:34.132Z,30.33
2022-11-30T23:39:36.793Z,28.00
2022-11-30T23:42:39.226Z,35.33
2022-11-30T23:45:42.217Z,26.00
2022-11-30T23:48:44.686Z,23.33
2022-11-30T23:51:47.384Z,17.33
2022-11-30T23:54:49.728Z,28.33
2022-11-30T23:57:52.497Z,29.00
